sensor_id;sensor_type;location;lat;lon;timestamp;temperature;humidity
52435;DHT22;38354;52.892;6.148;2023-04-24T03:02:37;9.80;99.90
52435;DHT22;38354;52.892;6.148;2023-04-24T03:05:03;9.80;99.90
52435;DHT22;38354;52.892;6.148;2023-04-24T03:07:29;9.80;99.90
52435;DHT22;38354;52.892;6.148;2023-04-24T03:09:56;9.80;99.90
52435;DHT22;38354;52.892;6.148;2023-04-24T03:12:23;9.80;99.90
52435;DHT22;38354;52.892;6.148;2023-04-24T03:14:49;9.80;99.90
52435;DHT22;38354;52.892;6.148;2023-04-24T03:17:15;9.80;99.90
52435;DHT22;38354;52.892;6.148;2023-04-24T03:19:41;9.80;99.90
52435;DHT22;38354;52.892;6.148;2023-04-24T03:22:06;9.80;99.90
52435;DHT22;38354;52.892;6.148;2023-04-24T03:24:32;9.70;99.90
52435;DHT22;38354;52.892;6.148;2023-04-24T03:26:57;9.80;99.90
52435;DHT22;38354;52.892;6.148;2023-04-24T03:29:23;9.70;99.90
52435;DHT22;38354;52.892;6.148;2023-04-24T03:31:49;9.80;99.90
52435;DHT22;38354;52.892;6.148;2023-04-24T03:34:17;9.80;99.90
52435;DHT22;38354;52.892;6.148;2023-04-24T03:36:42;9.80;99.90
52435;DHT22;38354;52.892;6.148;2023-04-24T03:39:08;9.80;99.90
52435;DHT22;38354;52.892;6.148;2023-04-24T03:41:34;9.80;99.90
52435;DHT22;38354;52.892;6.148;2023-04-24T03:43:59;9.80;99.90
52435;DHT22;38354;52.892;6.148;2023-04-24T03:46:25;9.80;99.90
52435;DHT22;38354;52.892;6.148;2023-04-24T03:48:51;9.80;99.90
52435;DHT22;38354;52.892;6.148;2023-04-24T03:51:17;9.80;99.90
52435;DHT22;38354;52.892;6.148;2023-04-24T03:53:42;9.70;99.90
52435;DHT22;38354;52.892;6.148;2023-04-24T03:56:08;9.80;99.90
52435;DHT22;38354;52.892;6.148;2023-04-24T03:58:33;9.80;99.90
52435;DHT22;38354;52.892;6.148;2023-04-24T04:00:59;9.80;99.90
52435;DHT22;38354;52.892;6.148;2023-04-24T04:03:25;9.80;99.90
52435;DHT22;38354;52.892;6.148;2023-04-24T04:05:51;9.80;99.90
52435;DHT22;38354;52.892;6.148;2023-04-24T04:08:17;9.80;99.90
52435;DHT22;38354;52.892;6.148;2023-04-24T04:10:42;9.80;99.90
52435;DHT22;38354;52.892;6.148;2023-04-24T04:13:08;9.80;99.90
52435;DHT22;38354;52.892;6.148;2023-04-24T04:15:33;9.90;99.90
52435;DHT22;38354;52.892;6.148;2023-04-24T04:17:59;9.90;99.90
52435;DHT22;38354;52.892;6.148;2023-04-24T04:20:25;9.90;99.90
52435;DHT22;38354;52.892;6.148;2023-04-24T04:22:50;9.90;99.90
52435;DHT22;38354;52.892;6.148;2023-04-24T04:25:16;9.90;99.90
52435;DHT22;38354;52.892;6.148;2023-04-24T04:27:45;9.90;99.90
52435;DHT22;38354;52.892;6.148;2023-04-24T04:30:11;9.90;99.90
52435;DHT22;38354;52.892;6.148;2023-04-24T04:32:37;9.90;99.90
52435;DHT22;38354;52.892;6.148;2023-04-24T04:35:03;9.90;99.90
52435;DHT22;38354;52.892;6.148;2023-04-24T04:37:32;9.90;99.90
52435;DHT22;38354;52.892;6.148;2023-04-24T04:39:59;9.90;99.90
52435;DHT22;38354;52.892;6.148;2023-04-24T04:42:35;9.90;99.90
52435;DHT22;38354;52.892;6.148;2023-04-24T04:45:00;9.90;99.90
52435;DHT22;38354;52.892;6.148;2023-04-24T04:47:27;9.80;99.90
52435;DHT22;38354;52.892;6.148;2023-04-24T04:49:54;9.90;99.90
52435;DHT22;38354;52.892;6.148;2023-04-24T04:52:20;9.90;99.90
52435;DHT22;38354;52.892;6.148;2023-04-24T04:54:50;9.90;99.90
52435;DHT22;38354;52.892;6.148;2023-04-24T04:57:16;9.80;99.90
52435;DHT22;38354;52.892;6.148;2023-04-24T04:59:41;9.80;99.90
52435;DHT22;38354;52.892;6.148;2023-04-24T05:02:08;9.80;99.90
52435;DHT22;38354;52.892;6.148;2023-04-24T05:04:34;9.70;99.90
52435;DHT22;38354;52.892;6.148;2023-04-24T05:07:00;9.70;99.90
52435;DHT22;38354;52.892;6.148;2023-04-24T05:09:25;9.70;99.90
52435;DHT22;38354;52.892;6.148;2023-04-24T05:11:53;9.60;99.90
52435;DHT22;38354;52.892;6.148;2023-04-24T05:14:18;9.60;99.90
52435;DHT22;38354;52.892;6.148;2023-04-24T05:16:44;9.60;99.90
52435;DHT22;38354;52.892;6.148;2023-04-24T05:19:10;9.60;99.90
52435;DHT22;38354;52.892;6.148;2023-04-24T05:21:37;9.60;99.90
52435;DHT22;38354;52.892;6.148;2023-04-24T05:24:04;9.60;99.90
52435;DHT22;38354;52.892;6.148;2023-04-24T05:26:30;9.60;99.90
52435;DHT22;38354;52.892;6.148;2023-04-24T05:28:56;9.60;99.90
52435;DHT22;38354;52.892;6.148;2023-04-24T05:31:21;9.60;99.90
52435;DHT22;38354;52.892;6.148;2023-04-24T05:34:00;9.60;99.90
52435;DHT22;38354;52.892;6.148;2023-04-24T05:36:26;9.60;99.90
52435;DHT22;38354;52.892;6.148;2023-04-24T05:38:52;9.60;99.90
52435;DHT22;38354;52.892;6.148;2023-04-24T05:41:18;9.60;99.90
52435;DHT22;38354;52.892;6.148;2023-04-24T05:43:43;9.60;99.90
52435;DHT22;38354;52.892;6.148;2023-04-24T05:46:09;9.60;99.90
52435;DHT22;38354;52.892;6.148;2023-04-24T05:48:34;9.60;99.90
52435;DHT22;38354;52.892;6.148;2023-04-24T05:51:00;9.60;99.90
52435;DHT22;38354;52.892;6.148;2023-04-24T05:53:26;9.60;99.90
52435;DHT22;38354;52.892;6.148;2023-04-24T05:55:52;9.60;99.90
52435;DHT22;38354;52.892;6.148;2023-04-24T05:58:17;9.60;99.90
52435;DHT22;38354;52.892;6.148;2023-04-24T06:00:43;9.60;99.90
52435;DHT22;38354;52.892;6.148;2023-04-24T06:03:11;9.60;99.90
52435;DHT22;38354;52.892;6.148;2023-04-24T06:05:37;9.60;99.90
52435;DHT22;38354;52.892;6.148;2023-04-24T06:08:02;9.60;99.90
52435;DHT22;38354;52.892;6.148;2023-04-24T06:10:28;9.60;99.90
52435;DHT22;38354;52.892;6.148;2023-04-24T06:12:54;9.60;99.90
52435;DHT22;38354;52.892;6.148;2023-04-24T06:15:21;9.60;99.90
52435;DHT22;38354;52.892;6.148;2023-04-24T06:17:47;9.60;99.90
52435;DHT22;38354;52.892;6.148;2023-04-24T06:20:13;9.60;99.90
52435;DHT22;38354;52.892;6.148;2023-04-24T06:22:38;9.60;99.90
52435;DHT22;38354;52.892;6.148;2023-04-24T06:25:05;9.60;99.90
52435;DHT22;38354;52.892;6.148;2023-04-24T06:27:31;9.60;99.90
52435;DHT22;38354;52.892;6.148;2023-04-24T06:29:57;9.60;99.90
52435;DHT22;38354;52.892;6.148;2023-04-24T06:32:23;9.60;99.90
52435;DHT22;38354;52.892;6.148;2023-04-24T06:34:50;9.60;99.90
52435;DHT22;38354;52.892;6.148;2023-04-24T06:37:16;9.60;99.90
52435;DHT22;38354;52.892;6.148;2023-04-24T06:39:42;9.60;99.90
52435;DHT22;38354;52.892;6.148;2023-04-24T06:42:08;9.50;99.90
52435;DHT22;38354;52.892;6.148;2023-04-24T06:44:35;9.50;99.90
52435;DHT22;38354;52.892;6.148;2023-04-24T06:47:09;9.50;99.90
52435;DHT22;38354;52.892;6.148;2023-04-24T06:49:36;9.50;99.90
52435;DHT22;38354;52.892;6.148;2023-04-24T06:52:01;9.50;99.90
52435;DHT22;38354;52.892;6.148;2023-04-24T06:54:27;9.60;99.90
52435;DHT22;38354;52.892;6.148;2023-04-24T06:56:52;9.60;99.90
52435;DHT22;38354;52.892;6.148;2023-04-24T06:59:18;9.60;99.90
52435;DHT22;38354;52.892;6.148;2023-04-24T07:01:44;9.60;99.90
52435;DHT22;38354;52.892;6.148;2023-04-24T07:04:10;9.60;99.90
52435;DHT22;38354;52.892;6.148;2023-04-24T07:06:37;9.60;99.90
52435;DHT22;38354;52.892;6.148;2023-04-24T07:09:03;9.50;99.90
52435;DHT22;38354;52.892;6.148;2023-04-24T07:11:28;9.50;99.90
52435;DHT22;38354;52.892;6.148;2023-04-24T07:13:55;9.60;99.90
52435;DHT22;38354;52.892;6.148;2023-04-24T07:16:21;9.60;99.90
52435;DHT22;38354;52.892;6.148;2023-04-24T07:18:46;9.60;99.90
52435;DHT22;38354;52.892;6.148;2023-04-24T07:21:12;9.70;99.90
52435;DHT22;38354;52.892;6.148;2023-04-24T07:23:38;9.70;99.90
52435;DHT22;38354;52.892;6.148;2023-04-24T07:26:04;9.60;99.90
52435;DHT22;38354;52.892;6.148;2023-04-24T07:28:30;9.70;99.90
52435;DHT22;38354;52.892;6.148;2023-04-24T07:30:59;9.60;99.90
52435;DHT22;38354;52.892;6.148;2023-04-24T07:33:28;9.60;99.90
52435;DHT22;38354;52.892;6.148;2023-04-24T07:35:54;9.50;99.90
52435;DHT22;38354;52.892;6.148;2023-04-24T07:38:19;9.50;99.90
52435;DHT22;38354;52.892;6.148;2023-04-24T07:40:48;9.50;99.90
52435;DHT22;38354;52.892;6.148;2023-04-24T07:43:14;9.40;99.90
52435;DHT22;38354;52.892;6.148;2023-04-24T07:45:40;9.40;99.90
52435;DHT22;38354;52.892;6.148;2023-04-24T07:48:06;9.30;99.90
52435;DHT22;38354;52.892;6.148;2023-04-24T07:50:34;9.30;99.90
52435;DHT22;38354;52.892;6.148;2023-04-24T07:53:01;9.30;99.90
52435;DHT22;38354;52.892;6.148;2023-04-24T07:55:27;9.30;99.90
52435;DHT22;38354;52.892;6.148;2023-04-24T07:57:53;9.30;99.90
52435;DHT22;38354;52.892;6.148;2023-04-24T08:00:19;9.20;99.90
52435;DHT22;38354;52.892;6.148;2023-04-24T08:02:45;9.20;99.90
52435;DHT22;38354;52.892;6.148;2023-04-24T08:05:10;9.20;99.90
52435;DHT22;38354;52.892;6.148;2023-04-24T08:07:36;9.10;99.90
52435;DHT22;38354;52.892;6.148;2023-04-24T08:10:02;9.10;99.90
52435;DHT22;38354;52.892;6.148;2023-04-24T08:12:28;9.10;99.90
52435;DHT22;38354;52.892;6.148;2023-04-24T08:14:54;9.00;99.90
52435;DHT22;38354;52.892;6.148;2023-04-24T08:17:20;9.00;99.90
52435;DHT22;38354;52.892;6.148;2023-04-24T08:19:46;9.00;99.90
52435;DHT22;38354;52.892;6.148;2023-04-24T08:22:17;9.00;99.90
52435;DHT22;38354;52.892;6.148;2023-04-24T08:24:42;8.90;99.90
52435;DHT22;38354;52.892;6.148;2023-04-24T08:27:09;8.90;99.90
52435;DHT22;38354;52.892;6.148;2023-04-24T08:29:36;8.90;99.90
52435;DHT22;38354;52.892;6.148;2023-04-24T08:32:02;8.90;99.90
52435;DHT22;38354;52.892;6.148;2023-04-24T08:34:27;8.90;99.90
52435;DHT22;38354;52.892;6.148;2023-04-24T08:36:53;8.90;99.90
52435;DHT22;38354;52.892;6.148;2023-04-24T08:39:19;8.90;99.90
52435;DHT22;38354;52.892;6.148;2023-04-24T08:41:45;8.90;99.90
52435;DHT22;38354;52.892;6.148;2023-04-24T08:44:13;8.90;99.90
52435;DHT22;38354;52.892;6.148;2023-04-24T08:46:41;9.00;99.90
52435;DHT22;38354;52.892;6.148;2023-04-24T08:49:07;9.00;99.90
52435;DHT22;38354;52.892;6.148;2023-04-24T08:51:33;9.00;99.90
52435;DHT22;38354;52.892;6.148;2023-04-24T08:53:59;9.00;99.90
52435;DHT22;38354;52.892;6.148;2023-04-24T08:56:26;9.00;99.90
52435;DHT22;38354;52.892;6.148;2023-04-24T08:58:53;9.00;99.90
52435;DHT22;38354;52.892;6.148;2023-04-24T09:01:20;9.00;99.90
52435;DHT22;38354;52.892;6.148;2023-04-24T09:03:48;9.00;99.90
52435;DHT22;38354;52.892;6.148;2023-04-24T09:06:16;9.00;99.90
52435;DHT22;38354;52.892;6.148;2023-04-24T09:08:44;8.90;99.90
52435;DHT22;38354;52.892;6.148;2023-04-24T09:11:11;9.00;99.90
52435;DHT22;38354;52.892;6.148;2023-04-24T09:13:37;9.00;99.90
52435;DHT22;38354;52.892;6.148;2023-04-24T09:16:03;9.00;99.90
52435;DHT22;38354;52.892;6.148;2023-04-24T09:18:29;9.10;99.90
52435;DHT22;38354;52.892;6.148;2023-04-24T09:21:04;9.10;99.90
52435;DHT22;38354;52.892;6.148;2023-04-24T09:23:32;9.20;99.90
52435;DHT22;38354;52.892;6.148;2023-04-24T09:25:59;9.20;99.90
52435;DHT22;38354;52.892;6.148;2023-04-24T09:28:30;9.30;99.90
52435;DHT22;38354;52.892;6.148;2023-04-24T09:33:32;9.40;99.90
52435;DHT22;38354;52.892;6.148;2023-04-24T09:35:58;9.50;99.90
52435;DHT22;38354;52.892;6.148;2023-04-24T09:38:37;9.60;99.90
52435;DHT22;38354;52.892;6.148;2023-04-24T09:41:06;9.60;99.90
52435;DHT22;38354;52.892;6.148;2023-04-24T09:43:33;9.60;99.90
52435;DHT22;38354;52.892;6.148;2023-04-24T09:46:04;9.60;99.90
52435;DHT22;38354;52.892;6.148;2023-04-24T09:48:35;9.60;99.90
52435;DHT22;38354;52.892;6.148;2023-04-24T09:51:03;9.50;99.90
52435;DHT22;38354;52.892;6.148;2023-04-24T09:53:30;9.40;99.90
52435;DHT22;38354;52.892;6.148;2023-04-24T09:56:02;9.30;99.90
52435;DHT22;38354;52.892;6.148;2023-04-24T09:58:29;9.20;99.90
52435;DHT22;38354;52.892;6.148;2023-04-24T10:00:55;9.10;99.90
52435;DHT22;38354;52.892;6.148;2023-04-24T10:03:24;9.10;99.90
52435;DHT22;38354;52.892;6.148;2023-04-24T10:05:53;9.10;99.90
52435;DHT22;38354;52.892;6.148;2023-04-24T10:08:20;9.10;99.90
52435;DHT22;38354;52.892;6.148;2023-04-24T10:10:46;9.10;99.90
52435;DHT22;38354;52.892;6.148;2023-04-24T10:13:13;9.20;99.90
52435;DHT22;38354;52.892;6.148;2023-04-24T10:15:40;9.20;99.90
52435;DHT22;38354;52.892;6.148;2023-04-24T10:18:07;9.20;99.90
52435;DHT22;38354;52.892;6.148;2023-04-24T10:20:35;9.30;99.90
52435;DHT22;38354;52.892;6.148;2023-04-24T10:23:01;9.30;99.90
52435;DHT22;38354;52.892;6.148;2023-04-24T10:25:28;9.40;99.90
52435;DHT22;38354;52.892;6.148;2023-04-24T10:27:55;9.40;99.90
52435;DHT22;38354;52.892;6.148;2023-04-24T10:30:29;9.50;99.90
52435;DHT22;38354;52.892;6.148;2023-04-24T10:32:55;9.60;99.90
52435;DHT22;38354;52.892;6.148;2023-04-24T10:35:22;9.50;99.90
52435;DHT22;38354;52.892;6.148;2023-04-24T10:37:56;9.40;99.90
52435;DHT22;38354;52.892;6.148;2023-04-24T10:40:42;9.40;99.90
52435;DHT22;38354;52.892;6.148;2023-04-24T10:43:08;9.30;99.90
52435;DHT22;38354;52.892;6.148;2023-04-24T10:45:38;9.20;99.90
52435;DHT22;38354;52.892;6.148;2023-04-24T10:48:06;9.20;99.90
52435;DHT22;38354;52.892;6.148;2023-04-24T10:50:53;9.10;99.90
52435;DHT22;38354;52.892;6.148;2023-04-24T10:53:20;9.10;99.90
52435;DHT22;38354;52.892;6.148;2023-04-24T10:55:49;9.10;99.90
52435;DHT22;38354;52.892;6.148;2023-04-24T10:58:16;9.20;99.90
52435;DHT22;38354;52.892;6.148;2023-04-24T11:00:43;9.20;99.90
52435;DHT22;38354;52.892;6.148;2023-04-24T11:03:28;9.30;99.90
52435;DHT22;38354;52.892;6.148;2023-04-24T11:06:00;9.30;99.90
52435;DHT22;38354;52.892;6.148;2023-04-24T11:08:43;9.40;99.90
52435;DHT22;38354;52.892;6.148;2023-04-24T11:11:17;9.50;99.90
52435;DHT22;38354;52.892;6.148;2023-04-24T11:21:57;9.80;99.90
52435;DHT22;38354;52.892;6.148;2023-04-24T11:27:38;9.70;99.90
52435;DHT22;38354;52.892;6.148;2023-04-24T11:32:35;9.40;99.90
52435;DHT22;38354;52.892;6.148;2023-04-24T11:35:04;9.40;99.90
52435;DHT22;38354;52.892;6.148;2023-04-24T11:37:41;9.40;99.90
52435;DHT22;38354;52.892;6.148;2023-04-24T11:40:10;9.40;99.90
52435;DHT22;38354;52.892;6.148;2023-04-24T11:42:37;9.50;99.90
52435;DHT22;38354;52.892;6.148;2023-04-24T11:45:12;9.60;99.90
52435;DHT22;38354;52.892;6.148;2023-04-24T11:47:38;9.70;99.90
52435;DHT22;38354;52.892;6.148;2023-04-24T11:50:07;9.80;99.90
52435;DHT22;38354;52.892;6.148;2023-04-24T11:52:37;9.90;99.90
52435;DHT22;38354;52.892;6.148;2023-04-24T11:55:03;9.80;99.90
52435;DHT22;38354;52.892;6.148;2023-04-24T11:57:30;9.80;99.90
52435;DHT22;38354;52.892;6.148;2023-04-24T12:00:04;9.80;99.90
52435;DHT22;38354;52.892;6.148;2023-04-24T12:02:33;9.80;99.90
52435;DHT22;38354;52.892;6.148;2023-04-24T12:04:59;9.90;99.90
52435;DHT22;38354;52.892;6.148;2023-04-24T12:07:25;9.90;99.90
52435;DHT22;38354;52.892;6.148;2023-04-24T12:09:58;9.90;99.90
52435;DHT22;38354;52.892;6.148;2023-04-24T12:12:27;9.90;99.90
52435;DHT22;38354;52.892;6.148;2023-04-24T12:14:55;10.00;99.90
52435;DHT22;38354;52.892;6.148;2023-04-24T12:17:31;10.20;99.90
52435;DHT22;38354;52.892;6.148;2023-04-24T12:20:02;10.40;99.90
52435;DHT22;38354;52.892;6.148;2023-04-24T12:22:42;10.50;99.90
52435;DHT22;38354;52.892;6.148;2023-04-24T12:25:10;10.50;99.90
52435;DHT22;38354;52.892;6.148;2023-04-24T12:27:35;10.40;99.90
52435;DHT22;38354;52.892;6.148;2023-04-24T12:30:04;10.30;99.90
52435;DHT22;38354;52.892;6.148;2023-04-24T12:32:30;10.10;99.90
52435;DHT22;38354;52.892;6.148;2023-04-24T12:34:56;10.00;99.90
52435;DHT22;38354;52.892;6.148;2023-04-24T12:37:26;9.80;99.90
52435;DHT22;38354;52.892;6.148;2023-04-24T12:40:11;9.60;99.90
52435;DHT22;38354;52.892;6.148;2023-04-24T12:42:45;9.40;99.90
52435;DHT22;38354;52.892;6.148;2023-04-24T12:45:12;9.30;99.90
52435;DHT22;38354;52.892;6.148;2023-04-24T12:47:39;9.40;99.90
52435;DHT22;38354;52.892;6.148;2023-04-24T12:50:06;9.50;99.90
52435;DHT22;38354;52.892;6.148;2023-04-24T12:52:32;9.60;99.90
52435;DHT22;38354;52.892;6.148;2023-04-24T12:55:00;9.70;99.90
52435;DHT22;38354;52.892;6.148;2023-04-24T12:57:28;9.70;99.90
52435;DHT22;38354;52.892;6.148;2023-04-24T12:59:56;9.80;99.90
52435;DHT22;38354;52.892;6.148;2023-04-24T13:02:23;9.90;99.90
52435;DHT22;38354;52.892;6.148;2023-04-24T13:04:49;9.90;99.90
52435;DHT22;38354;52.892;6.148;2023-04-24T13:07:15;9.90;99.90
52435;DHT22;38354;52.892;6.148;2023-04-24T13:09:42;9.80;99.90
52435;DHT22;38354;52.892;6.148;2023-04-24T13:12:08;9.70;99.90
52435;DHT22;38354;52.892;6.148;2023-04-24T13:14:35;9.60;99.90
52435;DHT22;38354;52.892;6.148;2023-04-24T13:17:00;9.40;99.90
52435;DHT22;38354;52.892;6.148;2023-04-24T13:19:27;9.30;99.90
52435;DHT22;38354;52.892;6.148;2023-04-24T13:21:56;9.00;99.90
52435;DHT22;38354;52.892;6.148;2023-04-24T13:24:23;9.00;99.90
52435;DHT22;38354;52.892;6.148;2023-04-24T13:26:52;9.00;99.90
52435;DHT22;38354;52.892;6.148;2023-04-24T13:29:18;8.90;99.90
52435;DHT22;38354;52.892;6.148;2023-04-24T13:31:44;8.90;99.90
52435;DHT22;38354;52.892;6.148;2023-04-24T13:34:10;8.90;99.90
52435;DHT22;38354;52.892;6.148;2023-04-24T13:36:36;9.00;99.90
52435;DHT22;38354;52.892;6.148;2023-04-24T13:39:02;9.10;99.90
52435;DHT22;38354;52.892;6.148;2023-04-24T13:41:30;9.20;99.90
52435;DHT22;38354;52.892;6.148;2023-04-24T13:43:56;9.30;99.90
52435;DHT22;38354;52.892;6.148;2023-04-24T13:46:22;9.40;99.90
52435;DHT22;38354;52.892;6.148;2023-04-24T13:48:47;9.50;99.90
52435;DHT22;38354;52.892;6.148;2023-04-24T13:51:13;9.60;99.90
52435;DHT22;38354;52.892;6.148;2023-04-24T13:53:39;9.60;99.90
52435;DHT22;38354;52.892;6.148;2023-04-24T13:56:05;9.60;99.90
52435;DHT22;38354;52.892;6.148;2023-04-24T13:58:31;9.60;99.90
52435;DHT22;38354;52.892;6.148;2023-04-24T14:00:58;9.60;99.90
52435;DHT22;38354;52.892;6.148;2023-04-24T14:03:23;9.60;99.90
52435;DHT22;38354;52.892;6.148;2023-04-24T14:05:49;9.60;99.90
52435;DHT22;38354;52.892;6.148;2023-04-24T14:08:15;9.50;99.90
52435;DHT22;38354;52.892;6.148;2023-04-24T14:10:41;9.50;99.90
52435;DHT22;38354;52.892;6.148;2023-04-24T14:13:08;9.40;99.90
52435;DHT22;38354;52.892;6.148;2023-04-24T14:15:35;9.40;99.90
52435;DHT22;38354;52.892;6.148;2023-04-24T14:18:01;9.40;99.90
52435;DHT22;38354;52.892;6.148;2023-04-24T14:20:26;9.40;99.90
52435;DHT22;38354;52.892;6.148;2023-04-24T14:22:52;9.40;99.90
52435;DHT22;38354;52.892;6.148;2023-04-24T14:25:18;9.40;99.90
52435;DHT22;38354;52.892;6.148;2023-04-24T14:27:44;9.50;99.90
52435;DHT22;38354;52.892;6.148;2023-04-24T14:30:11;9.60;99.90
52435;DHT22;38354;52.892;6.148;2023-04-24T14:32:38;9.60;99.90
52435;DHT22;38354;52.892;6.148;2023-04-24T14:35:05;9.70;99.90
52435;DHT22;38354;52.892;6.148;2023-04-24T14:37:32;9.70;99.90
52435;DHT22;38354;52.892;6.148;2023-04-24T14:39:58;9.60;99.90
52435;DHT22;38354;52.892;6.148;2023-04-24T14:42:23;9.60;99.90
52435;DHT22;38354;52.892;6.148;2023-04-24T14:44:49;9.60;99.90
52435;DHT22;38354;52.892;6.148;2023-04-24T14:47:16;9.50;99.90
52435;DHT22;38354;52.892;6.148;2023-04-24T14:49:43;9.60;99.90
52435;DHT22;38354;52.892;6.148;2023-04-24T14:52:09;9.60;99.90
52435;DHT22;38354;52.892;6.148;2023-04-24T14:54:35;9.70;99.90
52435;DHT22;38354;52.892;6.148;2023-04-24T14:57:01;9.70;99.90
52435;DHT22;38354;52.892;6.148;2023-04-24T14:59:28;9.70;99.90
52435;DHT22;38354;52.892;6.148;2023-04-24T15:01:54;9.70;99.90
52435;DHT22;38354;52.892;6.148;2023-04-24T15:04:24;9.70;99.90
52435;DHT22;38354;52.892;6.148;2023-04-24T15:06:52;9.60;99.90
52435;DHT22;38354;52.892;6.148;2023-04-24T15:09:19;9.40;99.90
52435;DHT22;38354;52.892;6.148;2023-04-24T15:11:46;9.30;99.90
52435;DHT22;38354;52.892;6.148;2023-04-24T15:14:12;9.10;99.90
52435;DHT22;38354;52.892;6.148;2023-04-24T15:16:37;9.10;99.90
52435;DHT22;38354;52.892;6.148;2023-04-24T15:19:03;9.00;99.90
52435;DHT22;38354;52.892;6.148;2023-04-24T15:21:29;9.00;99.90
52435;DHT22;38354;52.892;6.148;2023-04-24T15:23:55;9.10;99.90
52435;DHT22;38354;52.892;6.148;2023-04-24T15:26:21;9.00;99.90
52435;DHT22;38354;52.892;6.148;2023-04-24T15:28:47;8.90;99.90
52435;DHT22;38354;52.892;6.148;2023-04-24T15:31:12;9.00;99.90
52435;DHT22;38354;52.892;6.148;2023-04-24T15:33:38;9.00;99.90
52435;DHT22;38354;52.892;6.148;2023-04-24T15:36:04;9.00;99.90
52435;DHT22;38354;52.892;6.148;2023-04-24T15:38:30;9.00;99.90
52435;DHT22;38354;52.892;6.148;2023-04-24T15:41:05;9.00;99.90
52435;DHT22;38354;52.892;6.148;2023-04-24T15:43:30;9.00;99.90
52435;DHT22;38354;52.892;6.148;2023-04-24T15:45:59;9.00;99.90
52435;DHT22;38354;52.892;6.148;2023-04-24T15:48:26;9.00;99.90
52435;DHT22;38354;52.892;6.148;2023-04-24T15:50:57;9.00;99.90
52435;DHT22;38354;52.892;6.148;2023-04-24T15:53:24;8.90;99.90
52435;DHT22;38354;52.892;6.148;2023-04-24T15:55:51;8.80;99.90
52435;DHT22;38354;52.892;6.148;2023-04-24T15:58:18;8.80;99.90
52435;DHT22;38354;52.892;6.148;2023-04-24T16:00:44;8.70;99.90
52435;DHT22;38354;52.892;6.148;2023-04-24T16:03:11;8.80;99.90
52435;DHT22;38354;52.892;6.148;2023-04-24T16:05:36;8.80;99.90
52435;DHT22;38354;52.892;6.148;2023-04-24T16:08:02;8.80;99.90
52435;DHT22;38354;52.892;6.148;2023-04-24T16:10:28;8.90;99.90
52435;DHT22;38354;52.892;6.148;2023-04-24T16:12:54;9.00;99.90
52435;DHT22;38354;52.892;6.148;2023-04-24T16:15:20;9.10;99.90
52435;DHT22;38354;52.892;6.148;2023-04-24T16:17:47;9.00;99.90
52435;DHT22;38354;52.892;6.148;2023-04-24T16:20:13;8.90;99.90
52435;DHT22;38354;52.892;6.148;2023-04-24T16:22:39;8.80;99.90
52435;DHT22;38354;52.892;6.148;2023-04-24T16:25:06;8.70;99.90
52435;DHT22;38354;52.892;6.148;2023-04-24T16:27:32;8.60;99.90
52435;DHT22;38354;52.892;6.148;2023-04-24T16:29:58;8.60;99.90
52435;DHT22;38354;52.892;6.148;2023-04-24T16:32:24;8.60;99.90
52435;DHT22;38354;52.892;6.148;2023-04-24T16:34:50;8.60;99.90
52435;DHT22;38354;52.892;6.148;2023-04-24T16:37:16;8.60;99.90
52435;DHT22;38354;52.892;6.148;2023-04-24T16:39:42;8.60;99.90
52435;DHT22;38354;52.892;6.148;2023-04-24T16:42:10;8.60;99.90
52435;DHT22;38354;52.892;6.148;2023-04-24T16:44:40;8.50;99.90
52435;DHT22;38354;52.892;6.148;2023-04-24T16:47:07;8.40;99.90
52435;DHT22;38354;52.892;6.148;2023-04-24T16:49:33;8.40;99.90
52435;DHT22;38354;52.892;6.148;2023-04-24T16:51:59;8.30;99.90
52435;DHT22;38354;52.892;6.148;2023-04-24T16:54:25;8.30;99.90
52435;DHT22;38354;52.892;6.148;2023-04-24T16:56:52;8.30;99.90
52435;DHT22;38354;52.892;6.148;2023-04-24T16:59:18;8.30;99.90
52435;DHT22;38354;52.892;6.148;2023-04-24T17:01:44;8.40;99.90
52435;DHT22;38354;52.892;6.148;2023-04-24T17:04:10;8.40;99.90
52435;DHT22;38354;52.892;6.148;2023-04-24T17:06:35;8.40;99.90
52435;DHT22;38354;52.892;6.148;2023-04-24T17:09:02;8.50;99.90
52435;DHT22;38354;52.892;6.148;2023-04-24T17:11:28;8.50;99.90
52435;DHT22;38354;52.892;6.148;2023-04-24T17:13:54;8.50;99.90
52435;DHT22;38354;52.892;6.148;2023-04-24T17:16:19;8.50;99.90
52435;DHT22;38354;52.892;6.148;2023-04-24T17:18:45;8.70;99.90
52435;DHT22;38354;52.892;6.148;2023-04-24T17:21:11;9.00;99.90
52435;DHT22;38354;52.892;6.148;2023-04-24T17:23:36;9.00;99.90
52435;DHT22;38354;52.892;6.148;2023-04-24T17:26:02;9.00;99.90
52435;DHT22;38354;52.892;6.148;2023-04-24T17:28:31;8.90;99.90
52435;DHT22;38354;52.892;6.148;2023-04-24T17:30:58;8.80;99.90
52435;DHT22;38354;52.892;6.148;2023-04-24T17:33:24;8.80;99.90
52435;DHT22;38354;52.892;6.148;2023-04-24T17:35:50;8.70;99.90
52435;DHT22;38354;52.892;6.148;2023-04-24T17:38:17;8.70;99.90
52435;DHT22;38354;52.892;6.148;2023-04-24T17:40:43;8.70;99.90
52435;DHT22;38354;52.892;6.148;2023-04-24T17:43:11;8.70;99.90
52435;DHT22;38354;52.892;6.148;2023-04-24T17:45:38;8.70;99.90
52435;DHT22;38354;52.892;6.148;2023-04-24T17:48:03;8.70;99.90
52435;DHT22;38354;52.892;6.148;2023-04-24T17:50:29;8.60;99.90
52435;DHT22;38354;52.892;6.148;2023-04-24T17:52:55;8.60;99.90
52435;DHT22;38354;52.892;6.148;2023-04-24T17:55:20;8.60;99.90
52435;DHT22;38354;52.892;6.148;2023-04-24T17:57:46;8.60;99.90
52435;DHT22;38354;52.892;6.148;2023-04-24T18:00:12;8.60;99.90
52435;DHT22;38354;52.892;6.148;2023-04-24T18:02:38;8.60;99.90
52435;DHT22;38354;52.892;6.148;2023-04-24T18:05:04;8.60;99.90
52435;DHT22;38354;52.892;6.148;2023-04-24T18:07:29;8.60;99.90
52435;DHT22;38354;52.892;6.148;2023-04-24T18:09:55;8.60;99.90
52435;DHT22;38354;52.892;6.148;2023-04-24T18:12:21;8.60;99.90
52435;DHT22;38354;52.892;6.148;2023-04-24T18:14:46;8.60;99.90
52435;DHT22;38354;52.892;6.148;2023-04-24T18:17:12;8.60;99.90
52435;DHT22;38354;52.892;6.148;2023-04-24T18:19:38;8.60;99.90
52435;DHT22;38354;52.892;6.148;2023-04-24T18:22:03;8.60;99.90
52435;DHT22;38354;52.892;6.148;2023-04-24T18:24:29;8.50;99.90
52435;DHT22;38354;52.892;6.148;2023-04-24T18:26:55;8.50;99.90
52435;DHT22;38354;52.892;6.148;2023-04-24T18:29:22;8.50;99.90
52435;DHT22;38354;52.892;6.148;2023-04-24T18:31:47;8.50;99.90
52435;DHT22;38354;52.892;6.148;2023-04-24T18:34:14;8.50;99.90
52435;DHT22;38354;52.892;6.148;2023-04-24T18:36:40;8.50;99.90
52435;DHT22;38354;52.892;6.148;2023-04-24T18:39:05;8.50;99.90
52435;DHT22;38354;52.892;6.148;2023-04-24T18:41:31;8.50;99.90
52435;DHT22;38354;52.892;6.148;2023-04-24T18:43:57;8.50;99.90
52435;DHT22;38354;52.892;6.148;2023-04-24T18:46:23;8.40;99.90
52435;DHT22;38354;52.892;6.148;2023-04-24T18:48:49;8.50;99.90
52435;DHT22;38354;52.892;6.148;2023-04-24T18:51:15;8.40;99.90
52435;DHT22;38354;52.892;6.148;2023-04-24T18:53:41;8.40;99.90
52435;DHT22;38354;52.892;6.148;2023-04-24T18:56:06;8.30;99.90
52435;DHT22;38354;52.892;6.148;2023-04-24T18:58:32;8.30;99.90
52435;DHT22;38354;52.892;6.148;2023-04-24T19:00:58;8.30;99.90